Las Lomas, CA

7:27 PM PST on December 04, 2016 (GMT -0800)
APRSWXNET | | Change Station

Elev 71 ft 36.87 °N, 121.73 °W | Updated 29 days ago

Partly Cloudy
Partly Cloudy
48 °F
Feels Like 48 °F
N
3
Wind Variable Wind from South
Gusts mph

Today
High -- | Low -- °F
--% Chance of Precip.
Yesterday
High -- | Low -- °F
Precip. -- in
Pressure 30.14 in
Visibility 9.0 miles
Clouds Clear
Dew Point 47 °F
Humidity 99%
Rainfall in
Snow Depth Not available.
7:04 AM 4:50 PM
Waxing Crescent, 27% visible
METAR KWVI 050253Z AUTO 32004KT 9SM CLR 10/09 A3013 RMK AO2 SLP205 T01000089 51007
Pressure 30.14 in
Visibility 9.0 miles
Clouds Clear
Dew Point 47 °F
Humidity 99%
Rainfall in
Snow Depth Not available.
7:04 AM 4:50 PM
Waxing Crescent, 27% visible
METAR KWVI 050253Z AUTO 32004KT 9SM CLR 10/09 A3013 RMK AO2 SLP205 T01000089 51007

10-Day Weather Forecast

Almanac

Astronomy

Dec. 04, 2016 Rise Set
Actual Time
Civil Twilight
Nautical Twilight
Astronomical Twilight
Moon
Length of Visible Light
Length of Day
Tomorrow will be .
, % of the Moon is Illuminated

Today's Extremes

State Highs State Lows

Community

WunderPhotos

Upload Photos

1,955,752 photos uploaded!

WunderBlog® & News

Nearby

Air Quality

  Air Quality AQ Index Pollutant
Not available.

Snow Depth

Station Depth Elevation

Earthquake Activity

City Distance Mag. Time & Date
Minimum magnitude displayed is 2.5.

Coastal Water Temperatures

Place Temperature

Stations

Nearby Weather Stations

Station Location Temp. Windchill Dew Point Humidity Wind Precip. Elev Updated Type
                   

Watches & Warnings

There are currently no watches in effect.